Main page
METAR-TAF:

METAR-TAF

Airports :

Pearson Field

Vancouver, Washington, United States

latitude: 45-37-24N, longitude: 122-39-23W, elevation: 23 ft

Current weather observation

The report was made 39 minutes ago, at 04:53 UTC
Calm wind
Temperature 57°F
Humidity 44%
Pressure 29.96 in. Hg
Visibility: 10 miles
Clear sky

METAR: KVUO 230453Z AUTO 00000KT 10SM CLR 14/02 A2996 RMK AO2 SLP146 T01440022

Time: 22:32 (05:32 UTC)


TAF: missing

Weather observations and forecasts of more than 4000 airports (METAR and TAF reports).

The available stations are represented by yellow and red dots on the map.

Hover mouse over dot to see the name of the station.

Then click to see weather observations and forecasts.

To change the map : click on the green buttons with a black cross to zoom in, on the green button with a dash to zoom out, or on the green arrows for adjacent maps.


METAR-TAF: